Kezdőlap
METAR-TAF:

METAR-TAF

Repülőterek :

Kalkutta, India

földrajzi szélesség: 22-39N, földrajzi hosszúság: 088-27E, magasság: 4 m

Jelenlegi meteorológiai megfigyelések

A jelentés 39 perccel ezelõtt készült, 16:00 UTC
Déli szél 10 kt
Hőmérséklet 31°C
Páratartalom 89%
Légköri nyomás 998 hPa
Látótávolság: 3200 m
Szórványos felhőzet 1800 lábon
Szakadozott felhőzet 10000 lábon
Száraz légköri homály,

METAR: VECC 281600Z 17010KT 3200 HZ SCT018 BKN100 31/29 Q0998 NOSIG

Idő: 22:09 (16:39 UTC)

Előrejelzés

A jelentés 2 órával és 39 perccel ezelõtt készült, 14:00 UTC
Az előrejelzés 28-én 15 óra UTC és 28-én 24 óra UTC között érvényes
Déli szél 10 kt
Látótávolság: 3000 m
Szórványos felhőzet 2000 lábon
Száraz légköri homály,

TAF: VECC 281400Z 2815/2824 17010KT 3000 HZ SCT020 SCT

Meteorológiai megfigyelések és előrejelzések több, mint 4000 repülőtéren (METAR és TAF jelentéseket).

A térképen piros és sárga pontok jelzik az elérhető meteorológiai állomásokat.

Mozgassa az egeret a pont fölött, hogy megjelenjen az állomás neve.

Azután kattintson az időjárási megfigyelések és előrejelzések megtekintéséhez.

A térkép megváltoztatása: kattintson a fekete keresztel jelölt zöld gombra ráközelítéshez, a vonallal jelölt zöld gombra távolításhoz, vagy a zöld nyilakra a szomszédos térképek eléréséhez.


METAR-TAF: